Time;durP1;ratioP1;P1;durP2;ratioP2;P2;SDS_P1;SDS_P2;PMS_P1;PMS_P2;Temp;Humidity;BMP_temperature;BMP_pressure;BME280_temperature;BME280_humidity;BME280_pressure;Samples;Min_cycle;Max_cycle;Signal;HPM_P1;HPM_P2
2022/06/11 00:01:37;;;;;;;2.35;1.92;;;;;;;18.11;78.82;101448.78;4977731;28;20044;-69
2022/06/11 00:04:05;;;;;;;3.17;1.90;;;;;;;17.97;79.40;101448.47;4969491;28;20020;-71
2022/06/11 00:06:32;;;;;;;4.50;1.90;;;;;;;17.92;80.19;101455.31;4983709;28;21108;-71
2022/06/11 00:08:57;;;;;;;6.07;2.10;;;;;;;17.95;79.76;101450.47;4985780;28;20045;-72
2022/06/11 00:11:23;;;;;;;3.25;1.95;;;;;;;17.98;80.11;101454.66;4985698;28;20026;-71
2022/06/11 00:13:49;;;;;;;4.60;1.83;;;;;;;17.92;80.19;101461.53;4967699;28;20036;-70
2022/06/11 00:16:15;;;;;;;5.75;2.30;;;;;;;17.88;80.51;101459.31;4984874;28;20047;-71
2022/06/11 00:18:42;;;;;;;2.70;1.80;;;;;;;17.81;80.44;101456.44;4972732;28;20018;-71
2022/06/11 00:21:07;;;;;;;6.30;2.10;;;;;;;17.85;80.95;101460.47;4988386;28;20010;-71
2022/06/11 00:23:33;;;;;;;7.53;2.10;;;;;;;17.84;80.63;101459.66;4986657;28;20082;-69
2022/06/11 00:26:01;;;;;;;2.40;1.92;;;;;;;17.85;80.45;101461.34;4998596;28;20013;-70
2022/06/11 00:28:26;;;;;;;6.32;2.20;;;;;;;17.78;80.13;101460.31;4988072;28;20041;-71
2022/06/11 00:30:52;;;;;;;3.88;1.92;;;;;;;17.80;80.32;101462.84;4990772;28;20105;-72
2022/06/11 00:33:17;;;;;;;2.90;2.05;;;;;;;17.89;80.26;101469.84;5003364;28;20029;-72
2022/06/11 00:35:43;;;;;;;4.15;1.88;;;;;;;17.86;80.47;101468.34;4978983;28;20798;-73
2022/06/11 00:38:08;;;;;;;3.20;2.10;;;;;;;17.76;80.57;101459.63;5023002;28;20002;-72
2022/06/11 00:40:35;;;;;;;6.47;2.10;;;;;;;17.76;80.91;101467.66;4978694;28;20014;-70
2022/06/11 00:43:00;;;;;;;2.47;1.92;;;;;;;17.75;81.10;101465.16;4979767;28;20025;-70
2022/06/11 00:45:29;;;;;;;1.90;1.80;;;;;;;17.73;81.24;101461.84;4990205;28;20401;-72
2022/06/11 00:48:03;;;;;;;4.43;1.90;;;;;;;17.66;80.98;101453.63;4974635;28;20115;-72
2022/06/11 00:50:52;;;;;;;3.25;2.00;;;;;;;17.59;81.58;101448.09;4961839;28;20049;-72
2022/06/11 00:53:22;;;;;;;6.78;2.40;;;;;;;17.73;81.71;101457.31;4967245;28;20023;-71
2022/06/11 00:55:48;;;;;;;4.43;1.90;;;;;;;17.67;81.93;101449.94;4978573;28;20339;-70
2022/06/11 00:58:19;;;;;;;3.53;1.92;;;;;;;17.58;82.41;101453.59;4960844;28;20668;-72
2022/06/11 01:00:50;;;;;;;3.88;2.08;;;;;;;17.50;82.20;101457.94;4962273;28;20010;-71
2022/06/11 01:03:18;;;;;;;4.88;2.03;;;;;;;17.47;82.58;101447.59;4964313;28;20126;-69
2022/06/11 01:05:47;;;;;;;2.42;2.22;;;;;;;17.44;82.15;101453.28;4997331;28;20641;-72
2022/06/11 01:08:38;;;;;;;2.55;2.08;;;;;;;17.45;82.51;101449.56;4960563;28;20026;-70
2022/06/11 01:11:42;;;;;;;1.88;1.70;;;;;;;17.45;82.54;101452.25;4960468;28;20451;-72
2022/06/11 01:14:26;;;;;;;3.15;2.05;;;;;;;17.51;81.45;101446.25;4883185;28;20019;-70
2022/06/11 01:17:30;;;;;;;2.30;2.10;;;;;;;17.48;81.95;101443.88;4894042;28;20405;-71
2022/06/11 01:20:11;;;;;;;3.83;2.03;;;;;;;17.52;82.15;101449.75;4964260;28;20171;-70
2022/06/11 01:22:51;;;;;;;3.45;2.05;;;;;;;17.50;81.68;101449.09;4976443;28;20482;-72
2022/06/11 01:25:27;;;;;;;5.30;2.10;;;;;;;17.51;81.91;101453.44;4995634;28;20034;-71
2022/06/11 01:28:02;;;;;;;2.60;2.03;;;;;;;17.51;82.39;101448.94;4997650;28;20807;-72
2022/06/11 01:30:50;;;;;;;4.00;2.00;;;;;;;17.46;81.91;101448.56;4979570;28;20704;-70
2022/06/11 01:33:29;;;;;;;2.60;1.90;;;;;;;17.52;82.00;101442.56;4974798;28;21008;-72
2022/06/11 01:36:11;;;;;;;2.95;2.30;;;;;;;17.44;81.45;101450.59;4980674;28;20017;-71
2022/06/11 01:38:57;;;;;;;4.75;2.10;;;;;;;17.41;81.77;101442.88;4994894;28;20025;-70
2022/06/11 01:41:38;;;;;;;3.00;2.10;;;;;;;17.49;81.57;101455.44;4978352;28;20041;-70
2022/06/11 01:44:10;;;;;;;5.72;2.30;;;;;;;17.45;82.23;101449.56;4981543;28;20904;-72
2022/06/11 01:46:44;;;;;;;3.38;2.00;;;;;;;17.46;82.06;101453.94;4960786;28;20260;-72
2022/06/11 01:49:21;;;;;;;7.20;2.05;;;;;;;17.45;82.41;101449.56;4964120;28;20060;-70
2022/06/11 01:52:04;;;;;;;3.80;1.90;;;;;;;17.40;82.57;101446.56;4995308;28;20025;-72
2022/06/11 01:54:37;;;;;;;3.42;2.20;;;;;;;17.41;82.14;101447.41;4980038;28;20880;-71
2022/06/11 01:57:27;;;;;;;3.17;2.13;;;;;;;17.39;82.44;101452.91;4981187;28;20728;-71
2022/06/11 02:00:10;;;;;;;3.05;2.00;;;;;;;17.43;82.40;101451.59;4977750;28;20040;-70
2022/06/11 02:02:41;;;;;;;2.05;1.90;;;;;;;17.37;82.81;101446.06;4994628;28;20031;-70
2022/06/11 02:05:09;;;;;;;5.68;2.33;;;;;;;17.32;82.96;101450.06;4987769;28;20061;-71
2022/06/11 02:07:55;;;;;;;2.47;2.00;;;;;;;17.36;83.38;101453.25;4978231;28;20002;-72
2022/06/11 02:10:26;;;;;;;2.10;1.83;;;;;;;17.32;83.25;101449.22;4997067;28;20442;-72
2022/06/11 02:13:00;;;;;;;2.45;1.95;;;;;;;17.31;82.93;101458.25;4982933;28;20064;-71
2022/06/11 02:15:34;;;;;;;2.55;2.00;;;;;;;17.34;83.19;101452.56;4967644;28;20048;-72
2022/06/11 02:18:01;;;;;;;2.78;2.10;;;;;;;17.31;83.14;101456.41;4964741;28;20131;-70
2022/06/11 02:20:29;;;;;;;2.30;1.88;;;;;;;17.33;82.94;101458.94;4962401;28;20002;-72
2022/06/11 02:23:13;;;;;;;2.22;1.83;;;;;;;17.26;83.26;101457.88;4978955;28;20069;-70
2022/06/11 02:25:45;;;;;;;2.35;1.75;;;;;;;17.15;84.18;101449.19;4973574;28;20038;-72
2022/06/11 02:28:12;;;;;;;2.13;1.92;;;;;;;17.19;84.23;101460.41;4945419;28;20028;-69
2022/06/11 02:30:38;;;;;;;2.30;2.10;;;;;;;17.17;84.39;101457.88;4963649;28;20239;-72
2022/06/11 02:33:03;;;;;;;5.35;2.00;;;;;;;17.14;84.49;101457.38;4950230;28;20007;-71
2022/06/11 02:35:36;;;;;;;2.70;1.98;;;;;;;17.15;84.81;101457.19;4961501;28;20084;-72
2022/06/11 02:38:01;;;;;;;3.17;2.17;;;;;;;17.14;84.92;101458.19;4962785;28;20025;-71
2022/06/11 02:40:28;;;;;;;2.95;1.85;;;;;;;17.07;85.45;101467.03;4998492;28;20137;-71
2022/06/11 02:42:54;;;;;;;2.60;2.22;;;;;;;17.05;85.68;101469.88;4984043;28;20037;-70
2022/06/11 02:45:20;;;;;;;4.10;2.10;;;;;;;17.16;85.23;101461.56;4980032;28;21051;-71
2022/06/11 02:47:47;;;;;;;2.47;2.25;;;;;;;17.06;85.54;101468.88;4983532;28;20469;-72
2022/06/11 02:50:33;;;;;;;3.47;2.15;;;;;;;17.07;85.33;101467.88;5000911;28;20010;-72
2022/06/11 02:52:59;;;;;;;5.25;2.40;;;;;;;17.15;84.80;101464.41;4982445;28;20025;-71
2022/06/11 02:55:25;;;;;;;2.03;1.92;;;;;;;17.17;84.66;101473.94;4983821;28;20414;-70
2022/06/11 02:57:50;;;;;;;3.63;2.38;;;;;;;17.14;84.89;101470.75;4997008;28;20011;-70
2022/06/11 03:00:18;;;;;;;2.60;2.10;;;;;;;17.29;84.73;101465.59;4962801;28;20320;-69
2022/06/11 03:02:47;;;;;;;3.35;2.00;;;;;;;17.30;84.64;101467.25;4987345;28;20068;-70
2022/06/11 03:05:13;;;;;;;6.65;2.00;;;;;;;17.11;84.77;101469.22;4963819;28;20116;-71
2022/06/11 03:07:39;;;;;;;2.90;2.03;;;;;;;17.12;85.00;101476.25;4963988;28;20018;-71
2022/06/11 03:10:04;;;;;;;3.92;2.17;;;;;;;17.13;85.23;101471.72;4986235;28;20445;-70
2022/06/11 03:12:30;;;;;;;4.40;2.13;;;;;;;17.08;85.59;101474.06;4986869;28;20055;-69
2022/06/11 03:14:55;;;;;;;3.53;2.00;;;;;;;17.07;85.57;101473.22;4966632;28;20018;-70
2022/06/11 03:17:21;;;;;;;2.40;2.22;;;;;;;17.00;85.75;101472.19;5000558;28;20014;-71
2022/06/11 03:19:46;;;;;;;2.30;2.10;;;;;;;16.97;85.65;101472.50;4983800;28;20587;-70
2022/06/11 03:22:12;;;;;;;2.95;2.30;;;;;;;16.83;86.45;101477.41;4983743;28;20066;-71
2022/06/11 03:24:37;;;;;;;3.55;2.03;;;;;;;16.96;85.93;101482.38;4985284;28;20287;-73
2022/06/11 03:27:03;;;;;;;3.00;2.10;;;;;;;16.95;86.10;101479.84;4971278;28;20022;-71
2022/06/11 03:29:29;;;;;;;3.70;2.20;;;;;;;16.93;86.10;101477.34;4990934;28;20018;-69
2022/06/11 03:31:54;;;;;;;4.55;2.00;;;;;;;16.95;86.54;101479.84;5005522;28;20025;-70
2022/06/11 03:34:20;;;;;;;3.53;2.10;;;;;;;16.89;86.21;101481.31;4991171;28;20017;-70
2022/06/11 03:36:45;;;;;;;4.05;2.30;;;;;;;16.96;85.63;101481.53;4969242;28;20830;-71
2022/06/11 03:39:12;;;;;;;2.15;1.95;;;;;;;16.90;85.71;101483.00;4988224;28;20978;-71
2022/06/11 03:41:38;;;;;;;3.85;2.20;;;;;;;16.92;85.95;101474.81;4970068;28;20022;-70
2022/06/11 03:44:04;;;;;;;4.03;2.20;;;;;;;16.90;86.07;101471.50;4968482;28;20026;-70
2022/06/11 03:46:29;;;;;;;2.65;2.10;;;;;;;16.94;86.04;101476.34;4987394;28;20801;-70
2022/06/11 03:48:55;;;;;;;5.10;2.10;;;;;;;16.93;86.54;101488.03;5010260;28;21067;-71
2022/06/11 03:51:20;;;;;;;1.92;1.80;;;;;;;16.92;86.50;101496.22;4993480;28;20249;-71
2022/06/11 03:53:46;;;;;;;5.20;2.20;;;;;;;16.96;86.63;101494.91;4998036;28;20524;-71
2022/06/11 03:56:12;;;;;;;2.25;2.10;;;;;;;16.95;86.58;101506.56;4955260;28;20109;-71
2022/06/11 03:58:37;;;;;;;2.35;2.00;;;;;;;17.08;86.02;101508.84;4949954;28;20029;-72
2022/06/11 04:01:16;;;;;;;3.17;2.20;;;;;;;17.10;85.82;101499.63;4983098;28;20098;-69
2022/06/11 04:03:52;;;;;;;2.65;2.45;;;;;;;17.04;86.04;101505.63;4998407;28;20034;-70
2022/06/11 04:06:20;;;;;;;1.98;1.88;;;;;;;16.95;85.98;101502.09;4980310;28;20014;-73
2022/06/11 04:08:46;;;;;;;3.38;1.90;;;;;;;16.95;86.40;101509.25;4978714;28;20013;-69
2022/06/11 04:11:12;;;;;;;2.58;2.20;;;;;;;16.84;86.66;101499.66;4965023;28;20384;-70
2022/06/11 04:13:38;;;;;;;3.53;2.03;;;;;;;16.90;86.76;101508.91;4963508;28;20193;-71
2022/06/11 04:16:04;;;;;;;3.45;2.00;;;;;;;16.79;87.39;101500.16;4981372;28;20029;-71
2022/06/11 04:18:41;;;;;;;2.85;1.90;;;;;;;16.82;87.33;101507.00;4964892;28;20025;-71
2022/06/11 04:21:08;;;;;;;3.60;2.00;;;;;;;16.86;87.24;101504.84;4982325;28;20026;-71
2022/06/11 04:23:34;;;;;;;5.88;2.10;;;;;;;16.85;87.15;101511.19;4997329;28;20037;-71
2022/06/11 04:26:04;;;;;;;4.75;2.20;;;;;;;16.85;87.12;101508.50;4981360;28;20157;-70
2022/06/11 04:28:31;;;;;;;2.30;2.10;;;;;;;16.80;87.28;101514.34;4999109;28;20024;-72
2022/06/11 04:30:58;;;;;;;3.65;2.00;;;;;;;16.82;87.13;101515.00;4962640;28;20932;-71
2022/06/11 04:33:23;;;;;;;2.22;2.03;;;;;;;16.82;87.10;101515.88;4963477;28;20107;-71
2022/06/11 04:35:49;;;;;;;2.22;1.95;;;;;;;16.89;86.86;101509.91;4965796;28;20006;-71
2022/06/11 04:38:15;;;;;;;2.80;2.05;;;;;;;16.97;87.11;101509.94;4969243;28;20026;-71
2022/06/11 04:40:40;;;;;;;2.40;2.20;;;;;;;17.09;86.88;101513.16;4943370;28;20386;-71
2022/06/11 04:43:06;;;;;;;2.35;2.00;;;;;;;17.05;86.92;101515.34;4963620;28;20034;-69
2022/06/11 04:45:32;;;;;;;4.65;2.17;;;;;;;17.15;87.01;101513.38;4959870;28;20952;-70
2022/06/11 04:47:57;;;;;;;5.20;2.20;;;;;;;17.17;86.87;101510.53;4947194;28;20224;-72
2022/06/11 04:50:23;;;;;;;2.47;2.10;;;;;;;17.19;87.20;101516.56;4987547;28;20271;-72
2022/06/11 04:52:48;;;;;;;2.92;1.80;;;;;;;17.29;86.84;101522.59;4945765;28;20470;-72
2022/06/11 04:55:14;;;;;;;3.92;2.08;;;;;;;17.37;85.98;101520.97;4979717;28;20009;-71
2022/06/11 04:57:41;;;;;;;3.90;2.03;;;;;;;17.43;85.36;101520.28;4947124;28;20006;-71
2022/06/11 05:00:07;;;;;;;7.85;2.33;;;;;;;17.47;85.09;101519.81;4999876;28;20056;-70
2022/06/11 05:02:32;;;;;;;3.42;2.00;;;;;;;17.51;85.74;101521.19;4982572;28;20945;-70
2022/06/11 05:04:58;;;;;;;4.45;2.20;;;;;;;17.62;86.19;101521.88;4981091;28;20009;-71
2022/06/11 05:07:23;;;;;;;4.13;2.30;;;;;;;17.69;85.61;101520.19;4960906;28;20014;-70
2022/06/11 05:09:49;;;;;;;2.45;2.10;;;;;;;17.79;85.63;101525.41;5010590;28;20036;-71
2022/06/11 05:12:14;;;;;;;2.92;2.00;;;;;;;17.89;85.61;101523.41;4960368;28;20060;-71
2022/06/11 05:14:40;;;;;;;3.08;2.45;;;;;;;17.98;85.66;101521.63;4933851;28;20010;-71
2022/06/11 05:17:06;;;;;;;3.72;2.20;;;;;;;18.02;85.74;101526.47;4940293;28;20022;-71
2022/06/11 05:19:31;;;;;;;5.40;2.08;;;;;;;18.12;85.06;101528.13;4998097;28;20082;-69
2022/06/11 05:21:56;;;;;;;5.03;1.95;;;;;;;18.21;84.30;101529.00;4989166;28;20030;-73
2022/06/11 05:24:22;;;;;;;2.97;1.95;;;;;;;18.26;83.94;101523.94;4979748;28;20017;-69
2022/06/11 05:27:00;;;;;;;3.15;2.10;;;;;;;18.34;84.80;101535.47;4980581;28;20500;-71
2022/06/11 05:29:31;;;;;;;3.05;2.10;;;;;;;18.35;85.20;101526.44;4962701;28;20106;-71
2022/06/11 05:31:57;;;;;;;3.58;1.88;;;;;;;18.44;84.75;101534.47;4962501;28;20102;-70
2022/06/11 05:34:22;;;;;;;3.67;2.00;;;;;;;18.45;82.92;101534.31;4997187;28;20850;-70
2022/06/11 05:36:48;;;;;;;3.35;1.88;;;;;;;18.45;81.00;101539.66;4976984;28;20002;-71
2022/06/11 05:39:14;;;;;;;4.22;2.10;;;;;;;18.49;81.11;101541.00;4979123;28;20981;-71
2022/06/11 05:41:39;;;;;;;2.60;2.00;;;;;;;18.61;80.41;101540.66;4971656;28;20125;-71
2022/06/11 05:44:05;;;;;;;2.45;1.88;;;;;;;18.68;80.30;101531.78;4957794;28;20044;-72
2022/06/11 05:46:31;;;;;;;4.40;2.00;;;;;;;18.76;80.11;101536.28;4975450;28;20020;-70
2022/06/11 05:48:59;;;;;;;5.03;2.10;;;;;;;18.67;79.05;101529.25;4973965;28;20126;-70
2022/06/11 05:51:30;;;;;;;2.47;2.00;;;;;;;18.83;80.08;101541.78;4957468;28;20014;-71
2022/06/11 05:53:56;;;;;;;1.90;1.80;;;;;;;18.85;78.47;101537.94;4956070;28;20018;-71
2022/06/11 05:56:22;;;;;;;2.17;1.92;;;;;;;18.91;78.01;101532.91;4959644;28;20023;-71
2022/06/11 05:58:53;;;;;;;3.72;2.10;;;;;;;19.00;77.39;101539.91;4970673;28;20113;-71
2022/06/11 06:01:20;;;;;;;2.75;2.28;;;;;;;19.15;77.30;101540.00;4953570;28;20026;-70
2022/06/11 06:03:46;;;;;;;6.28;2.33;;;;;;;19.21;78.07;101539.34;4973397;28;20138;-72
2022/06/11 06:06:11;;;;;;;5.82;2.10;;;;;;;19.20;76.76;101543.03;4972400;28;20277;-71
2022/06/11 06:08:37;;;;;;;5.10;2.20;;;;;;;19.32;77.72;101530.91;4978906;28;21114;-71
2022/06/11 06:11:02;;;;;;;3.85;1.92;;;;;;;19.33;76.41;101523.69;4972343;28;20147;-71
2022/06/11 06:13:46;;;;;;;4.32;2.08;;;;;;;19.47;76.79;101530.97;4972929;28;20053;-71
2022/06/11 06:16:13;;;;;;;2.80;1.98;;;;;;;19.55;76.53;101533.63;4956009;28;20017;-71
2022/06/11 06:18:38;;;;;;;4.63;2.10;;;;;;;19.55;74.22;101533.63;4958889;28;20018;-72
2022/06/11 06:21:04;;;;;;;5.53;2.20;;;;;;;19.60;73.85;101526.88;4968152;28;20470;-71
2022/06/11 06:23:33;;;;;;;2.80;2.00;;;;;;;19.77;73.49;101538.34;4919975;28;20042;-71
2022/06/11 06:25:58;;;;;;;7.93;2.38;;;;;;;19.84;71.98;101536.66;4918130;28;20031;-72
2022/06/11 06:28:24;;;;;;;2.47;2.17;;;;;;;19.93;71.53;101532.09;4969545;28;20053;-70
2022/06/11 06:30:49;;;;;;;4.82;2.03;;;;;;;19.99;71.11;101536.72;4964578;28;20424;-68
2022/06/11 06:33:15;;;;;;;3.15;1.92;;;;;;;20.02;71.83;101529.16;4969506;28;20149;-69
2022/06/11 06:35:40;;;;;;;3.13;2.08;;;;;;;20.09;71.24;101537.31;4933673;28;20059;-72
2022/06/11 06:38:06;;;;;;;2.30;2.10;;;;;;;20.11;69.67;101540.66;4936188;28;20604;-71
2022/06/11 06:40:32;;;;;;;2.10;1.80;;;;;;;20.21;69.75;101543.94;4923217;28;20045;-70
2022/06/11 06:42:57;;;;;;;3.65;2.03;;;;;;;20.24;70.51;101543.56;4938716;28;20129;-71
2022/06/11 06:45:23;;;;;;;3.33;2.28;;;;;;;20.31;69.64;101548.22;4955880;28;20665;-69
2022/06/11 06:47:49;;;;;;;5.40;2.28;;;;;;;20.34;68.22;101537.94;4944758;28;20538;-73
2022/06/11 06:50:14;;;;;;;4.80;2.20;;;;;;;20.44;68.05;101547.59;4920560;28;20457;-72
2022/06/11 06:52:40;;;;;;;3.85;1.90;;;;;;;20.52;68.18;101555.59;4921677;28;20019;-71
2022/06/11 06:55:06;;;;;;;3.30;2.28;;;;;;;20.47;68.27;101549.94;4920649;28;20063;-72
2022/06/11 06:57:32;;;;;;;3.60;1.92;;;;;;;20.44;67.67;101553.81;4948195;28;20452;-69
2022/06/11 06:59:58;;;;;;;5.50;2.10;;;;;;;20.55;66.98;101561.44;4957632;28;20165;-72
2022/06/11 07:02:25;;;;;;;2.70;1.85;;;;;;;20.62;66.88;101552.66;4929060;28;20046;-71
2022/06/11 07:04:50;;;;;;;2.65;2.20;;;;;;;20.67;67.38;101556.50;4947725;28;20420;-73
2022/06/11 07:07:18;;;;;;;2.00;1.80;;;;;;;20.75;64.83;101566.31;4961829;28;20114;-71
2022/06/11 07:09:44;;;;;;;3.20;1.55;;;;;;;20.80;65.12;101563.91;4946688;28;20025;-73
2022/06/11 07:12:09;;;;;;;4.07;2.33;;;;;;;20.81;67.88;101554.81;4965095;28;20014;-71
2022/06/11 07:14:35;;;;;;;4.97;2.40;;;;;;;20.97;66.57;101561.88;4940812;28;20031;-70
2022/06/11 07:17:02;;;;;;;3.65;2.00;;;;;;;21.13;63.40;101562.72;4962673;28;20278;-70
2022/06/11 07:19:32;;;;;;;1.73;1.60;;;;;;;21.27;63.36;101570.75;4924680;28;20312;-72
2022/06/11 07:22:01;;;;;;;1.98;1.52;;;;;;;21.29;62.83;101562.47;4957774;28;21147;-72
2022/06/11 07:24:28;;;;;;;3.25;1.90;;;;;;;21.29;63.59;101554.41;4947977;28;20523;-70
2022/06/11 07:26:56;;;;;;;3.30;2.10;;;;;;;21.38;64.78;101560.53;4944905;28;20461;-73
2022/06/11 07:29:36;;;;;;;2.40;1.80;;;;;;;21.43;64.01;101563.50;4947229;28;20174;-70
2022/06/11 07:32:07;;;;;;;3.97;2.03;;;;;;;21.60;62.12;101570.38;4958760;28;20050;-69
2022/06/11 07:34:34;;;;;;;5.35;2.22;;;;;;;21.73;62.11;101563.44;4958109;28;20019;-70
2022/06/11 07:36:59;;;;;;;3.42;1.77;;;;;;;21.70;61.25;101555.75;4966941;28;20865;-71
2022/06/11 07:39:25;;;;;;;2.58;1.60;;;;;;;21.84;60.41;101559.41;4942264;28;20011;-75
2022/06/11 19:00:28;;;;;;;2.95;1.38;;;;;;;22.52;55.94;101476.22;5091651;27;20402;-70
2022/06/11 19:02:54;;;;;;;3.45;1.30;;;;;;;22.31;57.12;101469.00;5043575;27;20031;-73
2022/06/11 19:05:20;;;;;;;4.45;1.80;;;;;;;22.21;56.63;101473.91;5015775;27;20206;-71
2022/06/11 19:07:46;;;;;;;3.70;1.90;;;;;;;22.12;58.53;101471.38;5013840;28;20005;-72
2022/06/11 19:10:11;;;;;;;4.32;1.70;;;;;;;21.94;59.18;101473.69;4987785;27;20078;-71
2022/06/11 19:12:37;;;;;;;14.50;1.92;;;;;;;21.94;59.31;101473.69;4993967;28;20185;-68
2022/06/11 19:15:05;;;;;;;11.80;1.98;;;;;;;21.92;59.66;101476.56;4995668;27;20965;-72
2022/06/11 19:17:30;;;;;;;9.02;1.90;;;;;;;21.90;60.21;101478.66;4982247;27;20064;-71
2022/06/11 19:19:57;;;;;;;5.00;1.60;;;;;;;21.88;60.49;101480.69;5020233;28;20404;-72
2022/06/11 19:22:23;;;;;;;7.13;1.50;;;;;;;21.78;61.05;101482.88;5008109;27;20453;-72
2022/06/11 19:24:48;;;;;;;6.10;1.45;;;;;;;21.70;61.42;101488.41;5006433;27;20957;-72
2022/06/11 19:27:14;;;;;;;4.97;1.60;;;;;;;21.70;61.83;101486.56;4994965;28;20037;-71
2022/06/11 19:29:39;;;;;;;11.02;1.75;;;;;;;21.58;62.04;101480.00;4998277;28;20010;-71
2022/06/11 19:32:05;;;;;;;6.38;1.50;;;;;;;21.56;61.60;101482.91;4979488;28;20030;-70
2022/06/11 19:34:30;;;;;;;3.00;1.50;;;;;;;21.52;61.61;101483.44;5012795;28;20006;-71
2022/06/11 19:36:57;;;;;;;4.22;1.60;;;;;;;21.43;61.86;101482.72;4999624;28;20028;-72
2022/06/11 19:39:27;;;;;;;3.58;1.33;;;;;;;21.39;62.08;101479.56;4985844;28;20051;-69
2022/06/11 19:41:53;;;;;;;2.17;1.48;;;;;;;21.32;62.46;101484.06;4975995;28;20010;-72
2022/06/11 19:44:21;;;;;;;4.38;1.60;;;;;;;21.30;62.36;101490.66;4986212;28;20145;-71
2022/06/11 19:46:47;;;;;;;3.22;1.48;;;;;;;21.21;62.38;101484.56;4999791;28;20091;-72
2022/06/11 19:49:12;;;;;;;6.20;1.83;;;;;;;21.19;62.31;101492.78;5025502;28;20033;-72
2022/06/11 19:51:38;;;;;;;3.75;1.45;;;;;;;21.17;62.33;101496.72;5003624;28;20082;-71
2022/06/11 19:54:04;;;;;;;3.47;1.58;;;;;;;21.12;62.56;101499.94;4986713;28;20021;-71
2022/06/11 19:56:31;;;;;;;3.67;1.67;;;;;;;21.09;62.89;101503.03;4977917;28;20857;-72
2022/06/11 19:58:56;;;;;;;3.45;1.80;;;;;;;21.06;63.04;101504.22;4976921;28;20080;-71
2022/06/11 20:01:23;;;;;;;2.75;1.60;;;;;;;21.05;63.05;101507.13;5001323;28;20014;-70
2022/06/11 20:03:48;;;;;;;3.25;1.73;;;;;;;20.95;63.59;101501.19;4999386;28;20009;-72
2022/06/11 20:06:14;;;;;;;8.38;2.10;;;;;;;20.91;63.82;101506.97;4984702;28;20009;-71
2022/06/11 20:08:45;;;;;;;1.70;1.60;;;;;;;20.87;63.98;101502.97;4963595;28;20082;-73
2022/06/11 20:11:10;;;;;;;5.43;1.90;;;;;;;20.79;63.93;101499.53;4971443;28;20010;-73
2022/06/11 20:13:36;;;;;;;4.90;1.95;;;;;;;20.78;63.92;101504.06;4983082;28;20034;-70
2022/06/11 20:16:01;;;;;;;6.35;2.25;;;;;;;20.77;63.56;101499.69;4985250;28;20864;-70
2022/06/11 20:18:27;;;;;;;3.38;2.05;;;;;;;20.69;63.44;101505.19;4987848;28;20026;-72
2022/06/11 20:20:52;;;;;;;3.72;1.90;;;;;;;20.70;63.36;101509.53;4978344;28;21032;-72
2022/06/11 20:23:18;;;;;;;2.00;1.80;;;;;;;20.65;63.58;101504.69;4973765;28;20029;-71
2022/06/11 20:25:43;;;;;;;5.53;1.90;;;;;;;20.60;63.78;101504.41;4980719;28;20053;-70
2022/06/11 20:28:09;;;;;;;3.10;1.83;;;;;;;20.56;63.93;101512.00;4966893;28;20085;-72
2022/06/11 20:30:36;;;;;;;2.88;1.80;;;;;;;20.53;64.24;101509.69;4967577;28;20629;-73
2022/06/11 20:33:01;;;;;;;5.38;2.30;;;;;;;20.54;64.24;101518.59;4973136;28;20081;-71
2022/06/11 20:35:27;;;;;;;5.28;1.92;;;;;;;20.48;64.50;101512.09;4969314;28;20354;-71
2022/06/11 20:37:53;;;;;;;10.00;1.92;;;;;;;20.43;64.68;101514.50;4999612;28;21066;-73
2022/06/11 20:40:19;;;;;;;6.05;1.95;;;;;;;20.27;65.45;101514.66;4994600;28;20041;-72
2022/06/11 20:42:44;;;;;;;5.07;1.98;;;;;;;19.83;67.04;101517.03;4989359;28;20020;-73
2022/06/11 20:45:10;;;;;;;4.35;1.70;;;;;;;19.61;67.86;101515.13;5005959;28;20021;-73
2022/06/11 20:47:36;;;;;;;6.43;2.03;;;;;;;19.46;68.73;101517.72;5001534;28;20125;-70
2022/06/11 20:50:04;;;;;;;5.43;2.03;;;;;;;19.41;68.97;101512.91;4984390;28;20450;-71
2022/06/11 20:52:29;;;;;;;8.25;2.00;;;;;;;19.26;69.72;101511.97;5000967;28;20010;-70
2022/06/11 20:54:55;;;;;;;3.67;1.77;;;;;;;19.19;70.37;101510.00;4995001;27;20072;-72
2022/06/11 20:57:21;;;;;;;2.47;1.85;;;;;;;19.14;71.02;101522.28;4975537;28;20851;-72
2022/06/11 20:59:46;;;;;;;4.55;1.92;;;;;;;19.21;70.91;101510.66;4993113;28;20175;-70
2022/06/11 21:02:18;;;;;;;4.93;1.90;;;;;;;19.18;70.93;101515.53;4984569;28;20404;-71
2022/06/11 21:04:44;;;;;;;5.88;2.20;;;;;;;19.07;71.25;101513.25;4980681;28;20049;-69
2022/06/11 21:09:54;;;;;;;4.38;1.92;;;;;;;18.95;72.44;101510.09;4982931;28;20399;-71
2022/06/11 21:12:20;;;;;;;3.30;2.15;;;;;;;18.95;72.53;101515.47;4976160;28;20005;-70
2022/06/11 21:14:45;;;;;;;2.65;1.92;;;;;;;18.91;72.23;101522.16;4980660;28;20523;-73
2022/06/11 21:17:11;;;;;;;5.60;2.40;;;;;;;18.86;72.46;101510.09;4979167;28;20057;-70
2022/06/11 21:19:36;;;;;;;4.32;2.20;;;;;;;18.91;72.31;101516.81;4991610;28;20025;-71
2022/06/11 21:22:06;;;;;;;9.00;2.00;;;;;;;18.87;72.60;101513.66;4980080;28;19997;-69
2022/06/11 21:24:37;;;;;;;5.00;2.30;;;;;;;18.83;72.08;101518.47;5003407;28;20009;-71
2022/06/11 21:27:03;;;;;;;3.63;2.08;;;;;;;18.90;72.00;101515.97;4966890;28;20026;-71
2022/06/11 21:29:29;;;;;;;4.38;2.30;;;;;;;18.84;72.82;101513.97;5002342;28;20022;-71
2022/06/11 21:31:54;;;;;;;4.57;2.00;;;;;;;18.88;72.69;101516.16;4999572;28;20013;-70
2022/06/11 21:34:19;;;;;;;4.35;2.17;;;;;;;18.82;72.93;101516.78;4992382;28;20428;-71
2022/06/11 21:36:45;;;;;;;2.53;2.13;;;;;;;18.71;73.40;101526.06;5015517;28;20021;-71
2022/06/11 21:39:10;;;;;;;3.70;2.22;;;;;;;18.73;72.84;101522.34;4972484;28;20056;-71
2022/06/11 21:41:45;;;;;;;5.63;2.40;;;;;;;18.66;72.65;101522.22;4990798;28;20017;-71
2022/06/11 21:44:11;;;;;;;2.40;2.20;;;;;;;18.68;72.19;101520.19;4989863;27;20005;-72
2022/06/11 21:46:36;;;;;;;6.13;2.60;;;;;;;18.50;72.88;101515.88;4984676;28;20121;-75
2022/06/11 21:49:02;;;;;;;8.10;2.58;;;;;;;18.35;73.51;101523.78;4993386;28;20021;-72
2022/06/11 21:51:28;;;;;;;6.07;2.50;;;;;;;18.32;73.36;101525.97;4998954;28;20013;-71
2022/06/11 21:53:53;;;;;;;6.28;2.13;;;;;;;18.23;73.96;101522.44;4986204;28;20014;-70
2022/06/11 21:56:18;;;;;;;3.88;2.40;;;;;;;18.17;74.40;101523.13;4982186;27;20021;-71
2022/06/11 21:58:44;;;;;;;3.25;2.42;;;;;;;18.07;74.89;101522.44;5000573;27;21130;-72
2022/06/11 22:01:26;;;;;;;7.10;2.20;;;;;;;18.01;75.32;101524.78;4998359;27;20005;-71
2022/06/11 22:03:52;;;;;;;3.70;2.30;;;;;;;18.00;75.16;101524.97;4982826;28;20014;-70
2022/06/11 22:06:19;;;;;;;7.72;2.90;;;;;;;17.92;75.58;101523.13;4959867;27;20343;-70
2022/06/11 22:08:46;;;;;;;3.70;2.40;;;;;;;17.88;76.12;101523.56;4975912;28;20014;-70
2022/06/11 22:11:12;;;;;;;2.88;2.63;;;;;;;17.76;76.20;101526.56;4992866;27;20810;-71
2022/06/11 22:13:38;;;;;;;3.08;2.67;;;;;;;17.71;76.33;101523.56;4993159;27;20040;-70
2022/06/11 22:16:03;;;;;;;5.25;2.50;;;;;;;17.72;76.57;101529.75;4999957;27;20029;-71
2022/06/11 22:18:29;;;;;;;9.82;2.50;;;;;;;17.68;76.69;101524.72;4989795;28;20010;-71
2022/06/11 22:20:54;;;;;;;5.15;2.88;;;;;;;17.62;76.77;101524.53;5006550;27;20017;-71
2022/06/11 22:23:20;;;;;;;3.90;2.85;;;;;;;17.55;77.26;101532.38;5003490;27;20017;-71
2022/06/11 22:25:46;;;;;;;5.32;2.67;;;;;;;17.47;76.97;101527.00;5014702;28;20017;-71
2022/06/11 22:28:11;;;;;;;4.53;3.05;;;;;;;17.37;77.34;101528.97;4997060;27;20320;-70
2022/06/11 22:30:37;;;;;;;4.55;2.83;;;;;;;17.39;77.16;101525.16;5005514;27;20020;-71
2022/06/11 22:33:03;;;;;;;3.85;2.78;;;;;;;17.49;76.89;101531.19;4979559;27;20001;-71
2022/06/11 22:35:29;;;;;;;2.97;2.78;;;;;;;17.33;77.54;101533.84;4996580;28;20005;-71
2022/06/11 22:37:55;;;;;;;3.40;3.00;;;;;;;17.33;77.87;101534.66;4975238;28;20021;-70
2022/06/11 22:40:21;;;;;;;6.88;2.60;;;;;;;17.30;78.20;101536.81;4994339;27;20491;-72
2022/06/11 22:42:47;;;;;;;7.03;2.50;;;;;;;17.19;78.61;101545.13;4979026;28;20040;-72
2022/06/11 22:45:15;;;;;;;4.63;2.85;;;;;;;17.12;79.08;101539.59;4962543;27;20021;-70
2022/06/11 22:47:40;;;;;;;4.88;2.60;;;;;;;17.19;78.87;101534.44;5000133;28;20068;-71
2022/06/11 22:50:06;;;;;;;2.95;2.47;;;;;;;17.14;78.98;101554.47;5003211;27;20010;-70